Time;durP1;ratioP1;P1;durP2;ratioP2;P2;SDS_P1;SDS_P2;PMS_P1;PMS_P2;Temp;Humidity;BMP_temperature;BMP_pressure;BME280_temperature;BME280_humidity;BME280_pressure;Samples;Min_cycle;Max_cycle;Signal;HPM_P1;HPM_P2
2022/01/14 00:02:23;;;;;;;69.82;62.25;;;;;;;-3.93;100.00;102487.28;5079941;28;20116;-81
2022/01/14 00:04:50;;;;;;;61.20;55.08;;;;;;;-3.81;100.00;102475.53;5088702;28;20044;-81
2022/01/14 00:07:18;;;;;;;67.40;60.22;;;;;;;-3.83;100.00;102481.69;5082110;28;20058;-82
2022/01/14 00:09:46;;;;;;;67.68;60.35;;;;;;;-3.95;100.00;102477.88;5089421;28;20094;-81
2022/01/14 00:12:17;;;;;;;63.83;57.08;;;;;;;-3.96;100.00;102489.19;5086394;28;20473;-82
2022/01/14 00:14:58;;;;;;;64.07;57.38;;;;;;;-3.97;100.00;102485.72;5087465;28;20056;-82
2022/01/14 00:17:24;;;;;;;63.90;57.30;;;;;;;-4.02;100.00;102481.69;5084655;28;20036;-81
2022/01/14 00:19:51;;;;;;;69.00;61.97;;;;;;;-4.10;100.00;102479.41;5086365;28;20468;-81
2022/01/14 00:22:18;;;;;;;71.18;62.88;;;;;;;-4.04;100.00;102483.50;5085301;28;20534;-81
2022/01/14 00:33:09;;;;;;;64.00;56.05;;;;;;;-4.16;100.00;102461.50;5089487;28;20055;-81
2022/01/14 00:35:38;;;;;;;64.60;56.95;;;;;;;-3.79;100.00;102460.69;5081858;28;20135;-81
2022/01/14 00:38:05;;;;;;;61.97;55.45;;;;;;;-4.12;100.00;102465.66;5083291;28;20052;-81
2022/01/14 00:40:33;;;;;;;66.03;57.28;;;;;;;-4.02;100.00;102466.09;5088885;28;20052;-81
2022/01/14 00:43:00;;;;;;;72.53;65.00;;;;;;;-4.08;100.00;102464.63;5084784;28;20113;-81
2022/01/14 00:45:29;;;;;;;71.95;64.53;;;;;;;-3.83;100.00;102460.91;5083848;28;20458;-82
2022/01/14 00:47:56;;;;;;;67.80;60.78;;;;;;;-4.01;100.00;102465.19;5089322;28;20117;-81
2022/01/14 00:50:23;;;;;;;67.30;59.85;;;;;;;-4.02;100.00;102463.50;5083101;28;20040;-81
2022/01/14 00:52:50;;;;;;;68.25;61.03;;;;;;;-4.04;100.00;102465.31;5082796;28;20056;-81
2022/01/14 00:55:26;;;;;;;69.07;60.33;;;;;;;-3.83;100.00;102477.34;5091265;28;20135;-81
2022/01/14 01:00:38;;;;;;;66.57;59.42;;;;;;;-3.93;100.00;102458.75;5091645;28;20053;-81
2022/01/14 01:03:05;;;;;;;62.22;55.85;;;;;;;-3.57;100.00;102444.09;5080503;28;20059;-80
2022/01/14 01:05:32;;;;;;;66.53;55.63;;;;;;;-3.80;100.00;102443.44;5085080;28;20045;-81
2022/01/14 01:08:04;;;;;;;67.25;59.90;;;;;;;-3.79;100.00;102447.69;5083447;28;20040;-81
2022/01/14 01:10:31;;;;;;;;;;;;;;;-3.85;100.00;102432.41;5090060;28;20071;-81
2022/01/14 01:13:04;;;;;;;65.40;58.50;;;;;;;-3.76;100.00;102436.34;5088255;28;19920;-80
2022/01/14 01:15:31;;;;;;;67.40;60.50;;;;;;;-3.78;100.00;102419.97;5083050;28;20048;-80
2022/01/14 01:17:59;;;;;;;72.10;61.05;;;;;;;-3.85;100.00;102418.59;5085433;28;20048;-81
2022/01/14 01:20:26;;;;;;;70.47;63.15;;;;;;;-3.84;100.00;102412.47;5084570;28;20432;-80
2022/01/14 01:22:54;;;;;;;70.03;62.83;;;;;;;-3.85;100.00;102411.63;5085445;28;20531;-81
2022/01/14 01:25:24;;;;;;;69.75;62.42;;;;;;;-3.80;100.00;102411.44;5084790;28;20461;-80
2022/01/14 01:27:54;;;;;;;63.22;56.38;;;;;;;-3.80;100.00;102401.06;5075182;28;20478;-81
2022/01/14 01:30:49;;;;;;;58.33;52.75;;;;;;;-3.76;100.00;102387.00;5086666;28;20052;-81
2022/01/14 01:33:18;;;;;;;69.93;62.28;;;;;;;-3.96;100.00;102387.94;5085737;28;20167;-81
2022/01/14 01:35:44;;;;;;;65.03;58.20;;;;;;;-3.49;100.00;102388.28;5083241;28;20040;-80
2022/01/14 01:38:16;;;;;;;61.40;55.08;;;;;;;-4.02;100.00;102370.91;5086250;28;20105;-82
2022/01/14 01:40:44;;;;;;;68.95;60.42;;;;;;;-3.96;100.00;102374.97;5084106;28;20087;-81
2022/01/14 01:43:12;;;;;;;64.93;58.40;;;;;;;-3.93;100.00;102373.06;5085052;28;20117;-81
2022/01/14 01:45:39;;;;;;;68.72;58.65;;;;;;;-3.87;100.00;102353.75;5090121;28;20083;-82
2022/01/14 01:48:06;;;;;;;59.45;53.25;;;;;;;-3.88;100.00;102352.06;5089303;28;20063;-81
2022/01/14 01:50:37;;;;;;;67.70;59.72;;;;;;;-3.93;100.00;102359.25;5080516;28;20041;-81
2022/01/14 01:53:05;;;;;;;65.10;58.15;;;;;;;-3.86;100.00;102360.63;5082062;28;20080;-81
2022/01/14 01:55:33;;;;;;;65.43;58.45;;;;;;;-3.91;100.00;102347.00;5085331;28;20111;-81
2022/01/14 01:58:00;;;;;;;62.00;55.65;;;;;;;-3.88;100.00;102336.47;5083899;28;20045;-80
2022/01/14 02:00:28;;;;;;;64.28;57.60;;;;;;;-3.66;100.00;102338.06;5082837;28;20546;-79
2022/01/14 02:02:56;;;;;;;67.85;60.55;;;;;;;-3.99;100.00;102320.59;5076204;28;20078;-80
2022/01/14 02:05:24;;;;;;;67.68;60.58;;;;;;;-4.02;100.00;102318.16;5084219;28;20050;-82
2022/01/14 02:07:52;;;;;;;64.50;54.20;;;;;;;-4.08;100.00;102314.09;5082468;28;20455;-82
2022/01/14 02:10:21;;;;;;;59.92;52.63;;;;;;;-4.17;100.00;102306.72;5083181;28;20052;-79
2022/01/14 02:12:50;;;;;;;61.28;54.67;;;;;;;-4.11;100.00;102311.63;5082835;28;20132;-80
2022/01/14 02:15:42;;;;;;;61.33;54.60;;;;;;;-4.09;100.00;102308.94;5081322;28;20153;-79
2022/01/14 02:18:29;;;;;;;58.58;52.28;;;;;;;-4.19;100.00;102306.78;5077931;28;20045;-80
2022/01/14 02:23:46;;;;;;;66.93;59.80;;;;;;;-4.18;100.00;102295.47;5082680;28;20416;-80
2022/01/14 02:26:13;;;;;;;69.95;60.35;;;;;;;-4.22;100.00;102287.94;5082855;28;20118;-80
2022/01/14 02:28:42;;;;;;;67.97;55.25;;;;;;;-4.26;100.00;102276.84;5088384;28;20128;-79
2022/01/14 02:31:09;;;;;;;64.35;57.78;;;;;;;-4.11;100.00;102274.44;5080912;28;20045;-81
2022/01/14 02:33:36;;;;;;;65.82;59.20;;;;;;;-3.48;100.00;102275.66;5078792;28;20443;-83
2022/01/14 02:36:06;;;;;;;63.25;56.60;;;;;;;-3.92;100.00;102272.66;5084105;28;20125;-82
2022/01/14 02:38:33;;;;;;;66.78;60.00;;;;;;;-3.93;100.00;102270.97;5082316;28;20060;-82
2022/01/14 02:41:00;;;;;;;68.43;61.83;;;;;;;-3.84;100.00;102259.28;5084585;28;20105;-82
2022/01/14 02:43:27;;;;;;;66.28;59.72;;;;;;;-3.78;100.00;102254.66;5079835;28;20049;-81
2022/01/14 02:45:56;;;;;;;59.72;53.60;;;;;;;-3.83;100.00;102267.00;5090206;28;20048;-82
2022/01/14 02:48:26;;;;;;;63.35;57.20;;;;;;;-3.76;100.00;102254.56;5086125;28;20143;-82
2022/01/14 02:50:56;;;;;;;66.35;59.85;;;;;;;-3.78;100.00;102253.78;5079628;28;20551;-82
2022/01/14 02:53:28;;;;;;;66.45;60.00;;;;;;;-3.69;100.00;102253.38;5086722;28;20484;-82
2022/01/14 02:55:57;;;;;;;59.30;53.15;;;;;;;-3.72;100.00;102243.13;5080025;28;20056;-81
2022/01/14 03:01:10;;;;;;;57.72;51.92;;;;;;;-3.58;100.00;102230.28;5190734;22;20981;-81
2022/01/14 03:03:38;;;;;;;60.80;54.03;;;;;;;-3.92;100.00;102237.16;5028686;28;20441;-81
2022/01/14 03:06:06;;;;;;;61.90;55.55;;;;;;;-3.73;100.00;102234.47;5030359;28;20543;-79
2022/01/14 03:08:34;;;;;;;58.03;52.10;;;;;;;-3.74;100.00;102237.16;5030932;28;20057;-80
2022/01/14 03:11:06;;;;;;;60.58;54.60;;;;;;;-3.74;100.00;102235.41;5030319;28;20050;-81
2022/01/14 03:13:33;;;;;;;62.08;55.85;;;;;;;-3.85;100.00;102216.06;5030508;28;20045;-81
2022/01/14 03:16:01;;;;;;;60.67;54.65;;;;;;;-3.82;100.00;102221.94;5030438;28;20084;-81
2022/01/14 03:18:34;;;;;;;58.75;52.58;;;;;;;-3.83;100.00;102209.88;5030364;28;20046;-80
2022/01/14 03:21:09;;;;;;;64.78;58.13;;;;;;;-3.85;100.00;102206.53;5029619;28;20124;-80
2022/01/14 03:23:43;;;;;;;66.80;59.80;;;;;;;-3.78;100.00;102210.50;5028829;28;20059;-80
2022/01/14 03:26:11;;;;;;;63.25;56.53;;;;;;;-3.81;100.00;102202.88;5028258;28;20049;-81
2022/01/14 03:28:38;;;;;;;75.95;61.08;;;;;;;-3.87;100.00;102207.50;5030096;28;20050;-80
2022/01/14 03:31:05;;;;;;;66.90;60.38;;;;;;;-3.75;100.00;102197.38;5030667;28;20556;-81
2022/01/14 03:33:33;;;;;;;64.05;57.33;;;;;;;-3.71;100.00;102198.88;5029432;28;20551;-80
2022/01/14 03:36:00;;;;;;;64.32;57.42;;;;;;;-3.88;100.00;102208.44;5029711;28;20100;-81
2022/01/14 03:38:26;;;;;;;61.92;55.80;;;;;;;-3.54;100.00;102197.19;5029887;28;20053;-81
2022/01/14 03:40:53;;;;;;;57.40;51.78;;;;;;;-3.62;100.00;102183.78;5029651;28;20080;-81
2022/01/14 03:43:20;;;;;;;60.53;54.25;;;;;;;-3.53;100.00;102183.28;5029574;28;20470;-81
2022/01/14 03:48:31;;;;;;;58.25;52.38;;;;;;;-3.66;100.00;102180.50;5126264;27;20392;-81
2022/01/14 03:50:58;;;;;;;60.53;54.38;;;;;;;-3.65;100.00;102178.72;5125271;28;20542;-81
2022/01/14 03:53:24;;;;;;;63.92;57.42;;;;;;;-3.54;100.00;102168.59;5122753;27;20054;-81
2022/01/14 03:55:51;;;;;;;64.07;57.85;;;;;;;-3.40;100.00;102168.75;5126694;28;20112;-79
2022/01/14 03:58:18;;;;;;;63.47;57.20;;;;;;;-3.46;100.00;102169.91;5125197;28;20048;-81
2022/01/14 04:00:45;;;;;;;61.03;55.00;;;;;;;-3.42;100.00;102162.78;5120389;28;20047;-81
2022/01/14 04:03:12;;;;;;;62.00;55.70;;;;;;;-3.56;100.00;102158.31;5116038;28;20457;-81
2022/01/14 04:05:40;;;;;;;59.13;53.30;;;;;;;-3.51;100.00;102158.06;5120588;27;20121;-81
2022/01/14 04:08:07;;;;;;;60.60;53.05;;;;;;;-3.26;100.00;102155.88;5119406;28;20112;-82
2022/01/14 04:10:34;;;;;;;56.95;50.00;;;;;;;-3.22;100.00;102151.34;5122157;28;20471;-81
2022/01/14 04:13:04;;;;;;;58.08;52.28;;;;;;;-3.27;100.00;102149.00;5110289;28;20048;-81
2022/01/14 04:15:41;;;;;;;50.67;46.15;;;;;;;-2.25;100.00;102148.63;5110510;28;20055;-81
2022/01/14 04:18:10;;;;;;;59.20;52.88;;;;;;;-2.79;100.00;102143.81;5114541;27;20395;-81
2022/01/14 04:20:38;;;;;;;52.67;48.25;;;;;;;-1.97;100.00;102135.69;5113341;28;20392;-81
2022/01/14 04:23:07;;;;;;;56.92;51.13;;;;;;;-2.89;100.00;102125.28;5117685;28;20579;-81
2022/01/14 04:25:34;;;;;;;57.63;51.42;;;;;;;-2.82;100.00;102141.38;5122415;28;20059;-81
2022/01/14 04:28:02;;;;;;;57.50;51.67;;;;;;;-2.91;100.00;102128.91;5121548;27;20544;-81
2022/01/14 04:30:29;;;;;;;56.65;51.42;;;;;;;-2.73;100.00;102125.28;5119504;28;20419;-81
2022/01/14 04:32:56;;;;;;;62.33;55.85;;;;;;;-2.87;100.00;102122.63;5116308;27;20104;-81
2022/01/14 04:35:23;;;;;;;59.22;51.38;;;;;;;-2.90;100.00;102120.19;5109896;28;20475;-79
2022/01/14 04:37:50;;;;;;;55.45;49.47;;;;;;;-2.61;100.00;102118.56;5112705;27;20108;-81
2022/01/14 04:40:19;;;;;;;56.25;50.38;;;;;;;-2.69;100.00;102115.53;5120682;28;20047;-81
2022/01/14 04:42:46;;;;;;;57.80;51.83;;;;;;;-2.87;100.00;102133.03;5115565;27;20077;-81
2022/01/14 04:45:25;;;;;;;58.65;52.60;;;;;;;-2.81;100.00;102123.13;5121801;28;20048;-81
2022/01/14 04:47:52;;;;;;;56.53;50.65;;;;;;;-2.40;100.00;102113.91;5111064;28;20532;-81
2022/01/14 04:50:21;;;;;;;60.92;54.58;;;;;;;-2.63;100.00;102118.66;5113952;28;20059;-81
2022/01/14 04:52:48;;;;;;;53.45;48.08;;;;;;;-2.58;100.00;102106.22;5114319;27;20048;-81
2022/01/14 04:55:19;;;;;;;61.65;55.28;;;;;;;-2.73;100.00;102114.88;5119254;28;20055;-82
2022/01/14 04:57:46;;;;;;;57.07;51.37;;;;;;;-2.68;100.00;102122.44;5114717;27;20043;-81
2022/01/14 05:00:15;;;;;;;58.58;52.80;;;;;;;-2.78;100.00;102109.94;5105424;28;20561;-81
2022/01/14 05:02:42;;;;;;;61.17;54.83;;;;;;;-2.66;100.00;102100.63;5103560;28;20044;-81
2022/01/14 05:05:10;;;;;;;61.00;54.95;;;;;;;-2.76;100.00;102096.84;5107799;28;20048;-84
2022/01/14 05:07:38;;;;;;;57.88;52.08;;;;;;;-2.66;100.00;102092.81;5105292;28;20044;-80
2022/01/14 05:10:21;;;;;;;58.67;52.70;;;;;;;-2.69;100.00;102089.53;5103271;27;20061;-79
2022/01/14 05:12:49;;;;;;;;;;;;;;;-2.79;100.00;102084.84;5101312;27;20058;-81
2022/01/14 05:15:17;;;;;;;61.55;55.78;;;;;;;-1.91;100.00;102077.19;5107738;27;19997;-82
2022/01/14 05:17:44;;;;;;;59.17;53.35;;;;;;;-2.31;100.00;102064.75;5112434;28;20108;-80
2022/01/14 05:20:12;;;;;;;54.63;49.25;;;;;;;-2.78;100.00;102081.34;5109885;28;20471;-80
2022/01/14 05:22:39;;;;;;;58.88;53.05;;;;;;;-2.85;100.00;102076.53;5105562;28;20044;-81
2022/01/14 05:25:07;;;;;;;62.58;56.17;;;;;;;-2.69;100.00;102068.72;5105478;28;20043;-81
2022/01/14 05:27:34;;;;;;;59.60;53.58;;;;;;;-2.81;100.00;102065.06;5095652;28;20044;-81
2022/01/14 05:30:03;;;;;;;60.22;53.67;;;;;;;-2.84;100.00;102070.44;5095541;28;20048;-79
2022/01/14 05:32:30;;;;;;;62.00;55.63;;;;;;;-2.80;100.00;102066.75;5097443;28;20052;-81
2022/01/14 05:34:57;;;;;;;63.65;57.25;;;;;;;-2.91;100.00;102066.50;5106084;28;20048;-80
2022/01/14 05:37:24;;;;;;;61.90;55.42;;;;;;;-2.88;100.00;102067.16;5107214;28;20044;-82
2022/01/14 05:39:50;;;;;;;59.05;52.90;;;;;;;-2.80;100.00;102066.75;5103974;28;20048;-81
2022/01/14 05:42:19;;;;;;;58.95;52.97;;;;;;;-3.00;100.00;102063.47;5103486;28;20113;-82
2022/01/14 05:44:45;;;;;;;58.85;53.00;;;;;;;-2.85;100.00;102063.53;5107441;28;20081;-82
2022/01/14 05:47:14;;;;;;;58.10;52.13;;;;;;;-2.78;100.00;102064.91;5101534;28;20047;-81
2022/01/14 05:49:40;;;;;;;58.03;52.05;;;;;;;-2.72;100.00;102064.56;5105985;28;20109;-82
2022/01/14 05:52:07;;;;;;;56.55;50.60;;;;;;;-2.80;100.00;102062.38;5095334;28;20048;-81
2022/01/14 05:54:34;;;;;;;56.10;50.13;;;;;;;-2.76;100.00;102069.06;5106889;28;20108;-82
2022/01/14 05:57:01;;;;;;;72.28;65.10;;;;;;;-2.61;100.00;102061.31;5097679;28;20040;-81
2022/01/14 05:59:27;;;;;;;72.13;65.50;;;;;;;-2.79;100.00;102056.22;5109111;28;20537;-81
2022/01/14 06:01:54;;;;;;;79.78;72.15;;;;;;;-2.83;100.00;102061.72;5098967;28;20112;-81
2022/01/14 06:04:22;;;;;;;80.43;72.93;;;;;;;-2.97;100.00;102052.06;5101114;28;20052;-81
2022/01/14 06:06:49;;;;;;;77.57;70.13;;;;;;;-2.80;100.00;102040.72;5103523;28;20047;-81
2022/01/14 06:09:16;;;;;;;78.68;71.38;;;;;;;-2.73;100.00;102036.84;5107616;28;20040;-81
2022/01/14 06:11:43;;;;;;;81.22;73.90;;;;;;;-2.14;100.00;102009.09;5106938;28;20408;-81
2022/01/14 06:14:10;;;;;;;76.47;69.53;;;;;;;-2.33;100.00;102006.78;5111088;28;20108;-82
2022/01/14 06:16:37;;;;;;;82.40;74.78;;;;;;;-2.29;100.00;102011.78;5112355;28;20043;-81
2022/01/14 06:19:04;;;;;;;81.50;73.97;;;;;;;-2.21;100.00;102006.94;5111883;28;20108;-80
2022/01/14 06:24:12;;;;;;;73.43;66.70;;;;;;;-1.91;100.00;101991.25;5127835;27;20727;-80
2022/01/14 06:26:39;;;;;;;74.70;67.47;;;;;;;-1.90;100.00;101993.78;5113481;27;20468;-81
2022/01/14 06:29:06;;;;;;;78.95;71.93;;;;;;;-1.92;100.00;101990.41;5113614;28;20048;-80
2022/01/14 06:31:34;;;;;;;77.10;70.03;;;;;;;-1.72;100.00;101993.56;5121993;27;20047;-81
2022/01/14 06:34:01;;;;;;;77.25;70.68;;;;;;;-1.13;100.00;101991.56;5116365;28;20048;-81
2022/01/14 06:36:28;;;;;;;76.53;69.65;;;;;;;-1.05;100.00;101994.53;5120205;27;20125;-81
2022/01/14 06:38:55;;;;;;;80.00;72.15;;;;;;;0.05;100.00;101994.13;5108432;28;20435;-82
2022/01/14 06:41:23;;;;;;;74.30;67.85;;;;;;;-0.99;100.00;101990.69;5125115;28;20443;-79
2022/01/14 06:43:50;;;;;;;73.88;67.43;;;;;;;-1.07;100.00;101991.16;5121838;27;20047;-80
2022/01/14 06:46:17;;;;;;;75.75;68.97;;;;;;;-1.13;100.00;101988.94;5111806;27;20108;-79
2022/01/14 06:48:43;;;;;;;79.53;72.32;;;;;;;-0.88;100.00;101977.75;5112536;28;20048;-83
2022/01/14 06:51:15;;;;;;;82.72;75.35;;;;;;;-0.85;100.00;101984.53;5104664;28;20044;-80
2022/01/14 06:53:41;;;;;;;80.82;73.57;;;;;;;-1.01;100.00;101975.13;5086220;27;20505;-82
2022/01/14 06:56:11;;;;;;;85.47;77.93;;;;;;;-0.09;100.00;101968.97;5048921;28;20118;-83
2022/01/14 06:58:39;;;;;;;81.70;74.72;;;;;;;0.10;100.00;101959.84;5046860;28;20051;-80
2022/01/14 07:01:06;;;;;;;79.88;73.05;;;;;;;-0.32;100.00;101959.25;5046117;28;20049;-79
2022/01/14 07:03:32;;;;;;;81.57;74.47;;;;;;;-0.66;100.00;101973.75;5045659;28;20547;-82
2022/01/14 07:05:59;;;;;;;83.55;75.75;;;;;;;0.33;100.00;101966.06;5044681;28;20430;-80
2022/01/14 07:08:26;;;;;;;79.57;72.55;;;;;;;0.17;100.00;101961.06;5040029;28;20042;-80
2022/01/14 07:13:18;;;;;;;82.78;75.68;;;;;;;0.02;100.00;101947.31;5083700;27;20769;-81
2022/01/14 07:15:45;;;;;;;83.75;76.18;;;;;;;0.18;100.00;101941.84;5072822;28;20117;-81
2022/01/14 07:18:12;;;;;;;77.70;71.38;;;;;;;0.52;100.00;101940.28;5070514;28;20057;-80
2022/01/14 07:20:39;;;;;;;85.03;77.47;;;;;;;0.60;100.00;101931.88;5059187;28;20061;-81
2022/01/14 07:23:05;;;;;;;89.80;81.80;;;;;;;0.69;100.00;101923.34;5021586;28;20077;-79
2022/01/14 07:25:32;;;;;;;89.53;81.25;;;;;;;0.32;100.00;101912.13;5026419;28;20109;-80
2022/01/14 07:27:59;;;;;;;88.78;81.20;;;;;;;0.87;100.00;101908.09;5027560;28;20107;-82
2022/01/14 07:30:27;;;;;;;84.88;77.43;;;;;;;0.78;100.00;101901.75;5024953;28;20092;-79
2022/01/14 07:32:54;;;;;;;82.03;75.22;;;;;;;1.13;100.00;101900.94;5026390;28;20119;-81
2022/01/14 07:35:20;;;;;;;82.40;74.72;;;;;;;1.12;100.00;101912.31;5026183;28;20485;-78
2022/01/14 07:37:47;;;;;;;77.13;70.75;;;;;;;0.91;100.00;101888.63;5024953;28;20053;-81
2022/01/14 07:40:14;;;;;;;81.90;75.05;;;;;;;0.47;100.00;101877.03;5028139;28;20058;-82
2022/01/14 07:42:41;;;;;;;85.25;77.43;;;;;;;0.37;100.00;101889.94;5026866;28;20045;-79
2022/01/14 07:45:09;;;;;;;84.55;77.25;;;;;;;0.27;100.00;101893.31;5029905;28;20474;-82
2022/01/14 07:47:37;;;;;;;92.28;83.78;;;;;;;1.17;100.00;101891.06;5023445;28;20053;-80
2022/01/14 07:50:04;;;;;;;87.63;79.82;;;;;;;0.89;100.00;101903.59;5026900;28;20038;-82
2022/01/14 07:52:31;;;;;;;82.47;75.05;;;;;;;0.87;100.00;101900.25;5028477;28;20056;-79
2022/01/14 07:54:58;;;;;;;83.18;75.88;;;;;;;1.77;100.00;101898.59;5027446;28;20057;-82
2022/01/14 07:57:25;;;;;;;85.63;78.05;;;;;;;2.46;100.00;101908.88;5023395;28;20046;-78
2022/01/14 07:59:52;;;;;;;81.15;73.93;;;;;;;1.74;100.00;101898.84;5025715;28;20046;-81
2022/01/14 08:04:51;;;;;;;83.22;75.78;;;;;;;1.66;100.00;101903.84;5069114;27;20767;-78
2022/01/14 08:07:22;;;;;;;82.93;75.40;;;;;;;1.60;100.00;101904.31;5066138;28;20133;-82
2022/01/14 08:09:49;;;;;;;79.47;72.70;;;;;;;2.52;100.00;101908.38;5066585;28;20084;-81
2022/01/14 08:12:16;;;;;;;77.90;71.50;;;;;;;1.99;100.00;101908.22;5068779;28;20044;-84
2022/01/14 08:14:42;;;;;;;86.70;78.75;;;;;;;2.32;100.00;101914.38;5068198;28;20106;-82
2022/01/14 08:17:11;;;;;;;83.45;76.30;;;;;;;1.63;100.00;101906.69;5065452;28;20110;-79
2022/01/14 08:19:38;;;;;;;87.38;79.63;;;;;;;1.63;100.00;101905.88;5068980;28;20385;-82
2022/01/14 08:22:07;;;;;;;84.45;77.13;;;;;;;1.69;100.00;101902.78;5064449;28;20111;-81
2022/01/14 08:24:35;;;;;;;90.47;82.55;;;;;;;2.27;100.00;101896.41;5063714;28;20102;-79
2022/01/14 08:27:03;;;;;;;82.10;75.03;;;;;;;2.80;100.00;101892.16;5064176;28;20041;-79
2022/01/14 08:29:30;;;;;;;84.15;77.07;;;;;;;1.31;100.00;101881.22;5062036;28;20106;-79
2022/01/14 08:31:57;;;;;;;82.40;75.03;;;;;;;2.72;100.00;101883.16;5060495;28;20056;-79
2022/01/14 08:34:25;;;;;;;80.65;73.93;;;;;;;2.69;100.00;101886.03;5061272;28;20045;-79
2022/01/14 08:36:52;;;;;;;81.90;74.82;;;;;;;2.81;100.00;101871.03;5061626;28;20477;-82
2022/01/14 08:39:20;;;;;;;83.95;76.40;;;;;;;3.24;100.00;101877.13;5057140;28;20053;-83
2022/01/14 08:41:47;;;;;;;83.15;75.43;;;;;;;3.21;100.00;101867.72;5060517;28;20106;-81
2022/01/14 08:44:15;;;;;;;86.00;78.88;;;;;;;2.97;100.00;101849.63;5062006;28;20049;-82
2022/01/14 08:46:42;;;;;;;84.32;77.32;;;;;;;3.76;100.00;101864.78;5072172;28;20053;-83
2022/01/14 08:49:09;;;;;;;83.78;76.40;;;;;;;3.02;100.00;101855.28;5062869;28;20110;-80
2022/01/14 08:51:37;;;;;;;87.25;79.85;;;;;;;2.11;100.00;101850.56;5064365;28;20055;-78
2022/01/14 08:54:04;;;;;;;80.82;74.28;;;;;;;3.19;100.00;101852.09;5066748;28;20787;-81
2022/01/14 08:56:33;;;;;;;76.72;70.55;;;;;;;3.48;100.00;101845.31;5066937;28;20118;-80
2022/01/14 08:59:00;;;;;;;84.47;77.30;;;;;;;4.23;100.00;101842.19;5066567;28;20056;-81
2022/01/14 09:01:27;;;;;;;79.20;72.72;;;;;;;3.48;100.00;101830.41;5064508;28;20139;-81
2022/01/14 09:03:54;;;;;;;80.03;73.38;;;;;;;3.05;100.00;101836.66;5062551;28;20068;-81
2022/01/14 09:06:21;;;;;;;78.93;72.40;;;;;;;3.59;100.00;101835.53;5060489;28;20532;-81
2022/01/14 09:08:48;;;;;;;81.90;75.18;;;;;;;4.13;100.00;101815.88;5057303;28;20057;-78
2022/01/14 09:11:14;;;;;;;86.85;79.60;;;;;;;2.34;100.00;101818.09;5060117;28;20114;-79
2022/01/14 09:13:42;;;;;;;86.38;79.07;;;;;;;3.59;100.00;101800.56;5068573;28;20114;-79
2022/01/14 09:16:20;;;;;;;87.45;79.78;;;;;;;3.08;100.00;101799.66;5057743;28;20463;-82
2022/01/14 09:18:47;;;;;;;83.72;75.53;;;;;;;2.82;100.00;101801.03;5051277;28;20056;-79
2022/01/14 09:21:15;;;;;;;88.07;80.75;;;;;;;3.67;100.00;101790.22;5049684;28;20467;-79
2022/01/14 09:23:43;;;;;;;85.32;78.03;;;;;;;3.70;100.00;101784.69;5044755;28;20118;-77
2022/01/14 09:26:10;;;;;;;90.75;82.85;;;;;;;4.51;100.00;101776.59;5045028;28;20088;-78
2022/01/14 09:28:37;;;;;;;83.15;76.57;;;;;;;4.49;100.00;101766.19;5046559;28;20103;-82
2022/01/14 09:31:05;;;;;;;85.90;78.80;;;;;;;4.04;100.00;101763.28;5044531;28;20057;-81
2022/01/14 09:33:34;;;;;;;85.68;78.28;;;;;;;3.80;100.00;101763.69;5044034;28;20110;-80
2022/01/14 09:36:01;;;;;;;84.80;77.82;;;;;;;4.70;100.00;101746.78;5045398;28;20131;-81
2022/01/14 09:38:28;;;;;;;86.95;78.53;;;;;;;5.43;100.00;101747.72;5045085;28;20070;-80
2022/01/14 09:40:56;;;;;;;84.70;77.38;;;;;;;4.10;100.00;101723.31;5047825;28;20111;-80
2022/01/14 09:43:23;;;;;;;87.05;79.63;;;;;;;4.47;100.00;101725.19;5042661;28;20049;-79
2022/01/14 09:45:52;;;;;;;80.80;73.78;;;;;;;6.25;100.00;101716.09;5044880;28;20049;-80
2022/01/14 09:48:21;;;;;;;81.00;73.93;;;;;;;5.48;100.00;101702.50;5042073;28;20050;-79
2022/01/14 09:50:48;;;;;;;79.35;72.60;;;;;;;4.52;100.00;101710.66;5046010;28;20049;-79
2022/01/14 09:53:15;;;;;;;82.72;75.75;;;;;;;5.82;100.00;101696.56;5045501;28;20065;-81
2022/01/14 09:55:43;;;;;;;83.47;76.72;;;;;;;5.34;100.00;101690.66;5047250;28;20118;-80
2022/01/14 09:58:10;;;;;;;82.18;75.20;;;;;;;5.12;100.00;101694.53;5044827;28;20482;-80
2022/01/14 10:00:38;;;;;;;85.10;78.10;;;;;;;4.04;100.00;101687.06;5045182;28;20466;-79
2022/01/14 10:03:23;;;;;;;79.85;73.35;;;;;;;4.92;100.00;101672.69;5047129;28;20667;-81
2022/01/14 10:05:52;;;;;;;84.47;77.13;;;;;;;4.26;100.00;101665.69;5044270;28;20477;-78
2022/01/14 10:08:22;;;;;;;87.32;79.53;;;;;;;3.15;100.00;101660.84;5041943;28;20049;-79
2022/01/14 10:10:51;;;;;;;88.07;80.47;;;;;;;3.90;100.00;101651.50;5049960;28;20053;-81
2022/01/14 10:13:20;;;;;;;85.05;77.22;;;;;;;3.84;100.00;101646.78;5048826;28;20061;-80
2022/01/14 10:15:49;;;;;;;84.35;77.45;;;;;;;4.01;100.00;101640.00;5040773;28;20115;-80
2022/01/14 10:18:17;;;;;;;76.65;70.15;;;;;;;4.50;100.00;101628.41;5048307;28;20115;-80
2022/01/14 10:20:46;;;;;;;83.55;76.78;;;;;;;5.76;100.00;101621.56;5044348;28;20061;-77
2022/01/14 10:23:15;;;;;;;84.45;77.40;;;;;;;5.33;100.00;101607.34;5047030;28;20102;-78
2022/01/14 10:25:42;;;;;;;82.82;75.60;;;;;;;5.53;100.00;101615.91;5041598;28;20052;-79
2022/01/14 10:28:20;;;;;;;88.35;80.97;;;;;;;6.41;100.00;101606.22;5045851;28;20057;-81
2022/01/14 10:30:48;;;;;;;77.28;71.25;;;;;;;5.74;100.00;101605.88;5052899;28;20048;-78
2022/01/14 10:33:20;;;;;;;87.28;80.15;;;;;;;5.85;100.00;101615.34;5048682;28;20049;-79
2022/01/14 10:35:48;;;;;;;90.47;83.10;;;;;;;5.99;100.00;101607.91;5045705;28;20045;-80
2022/01/14 10:38:17;;;;;;;89.60;81.78;;;;;;;6.11;100.00;101596.13;5051573;28;20103;-80
2022/01/14 10:40:45;;;;;;;93.10;85.68;;;;;;;5.89;100.00;101584.25;5043064;28;20049;-79
2022/01/14 10:43:16;;;;;;;89.20;81.65;;;;;;;5.01;100.00;101568.31;5042677;28;20115;-78
2022/01/14 10:45:43;;;;;;;84.88;77.47;;;;;;;6.34;100.00;101562.94;5043499;28;20124;-78
2022/01/14 10:48:12;;;;;;;88.22;80.53;;;;;;;6.20;100.00;101566.16;5039477;28;20054;-80
2022/01/14 10:50:42;;;;;;;90.00;82.32;;;;;;;6.04;100.00;101555.53;5046525;28;20041;-79
2022/01/14 10:53:12;;;;;;;83.95;77.13;;;;;;;5.77;100.00;101562.56;5041725;28;20057;-79
2022/01/14 10:55:42;;;;;;;80.32;73.95;;;;;;;5.21;100.00;101550.59;5043498;28;20136;-80
2022/01/14 10:58:13;;;;;;;81.63;75.05;;;;;;;5.94;100.00;101553.00;5043913;28;20045;-80
2022/01/14 11:00:42;;;;;;;85.72;78.82;;;;;;;5.92;100.00;101545.19;5043584;28;20143;-81
2022/01/14 11:03:09;;;;;;;86.22;79.07;;;;;;;7.24;100.00;101530.72;5040809;28;20106;-81
2022/01/14 11:05:36;;;;;;;86.50;79.60;;;;;;;6.08;100.00;101526.06;5042500;28;20107;-80
2022/01/14 11:08:04;;;;;;;84.53;76.68;;;;;;;5.90;100.00;101527.88;5042866;28;20046;-80
2022/01/14 11:10:34;;;;;;;83.55;76.82;;;;;;;5.25;100.00;101526.41;5044914;28;20116;-78
2022/01/14 11:13:03;;;;;;;86.40;79.57;;;;;;;6.79;100.00;101535.41;5042269;28;20119;-77
2022/01/14 11:15:32;;;;;;;88.47;80.95;;;;;;;5.31;100.00;101527.63;5043579;28;20060;-80
2022/01/14 11:18:02;;;;;;;91.72;84.05;;;;;;;6.79;100.00;101537.22;5042117;28;20045;-78
2022/01/14 11:20:32;;;;;;;84.78;77.65;;;;;;;6.47;100.00;101524.72;5043447;28;20132;-80
2022/01/14 11:23:14;;;;;;;86.18;78.82;;;;;;;6.82;100.00;101527.16;5047386;28;20056;-80
2022/01/14 11:25:46;;;;;;;87.47;80.28;;;;;;;8.66;100.00;101532.75;5041905;28;20060;-79
2022/01/14 11:28:18;;;;;;;85.20;78.28;;;;;;;8.12;100.00;101524.66;5041716;28;20118;-79
2022/01/14 11:30:44;;;;;;;85.18;77.85;;;;;;;6.67;100.00;101514.75;5045184;28;20118;-79
2022/01/14 11:33:14;;;;;;;79.82;73.03;;;;;;;6.49;100.00;101523.59;5047465;28;20489;-78
2022/01/14 11:35:40;;;;;;;82.35;75.40;;;;;;;6.47;100.00;101509.72;5044084;28;20119;-82
2022/01/14 11:38:36;;;;;;;84.93;77.55;;;;;;;6.79;100.00;101511.66;5044141;28;20132;-79